Airfield :
LOGIN :

Register | Disclaimer

   EN    FR    IT 

 










Legend :    VFR   Marginal VFR   IFR   Intensive IFR   Very Intensive IFR
Visi :
Ceiling :
>= 8 km
>= 3000ft
5 to 8 km
1000 to 3000 ft
1500m to 5 km
500 to 1000 ft
800 to 1500m
200 to 500 ft
< 800m
< 200 ft
Symbols :   Thunderstorms  Fog  Heavy snow  Heavy precipitations  Wind > 20 kt
SIGMETs :     Misc.  Thunderstorms  Icing  Turbulence  Mountain Waves  Volcanic Ashes






- Airport Elevation : 256 ft
- IATA code : KUN


EYKA - Kaunas

CURRENT METAR :
  • 070950Z 18009KT 110V260 CAVOK 18/M01 Q1028

EXPIRED METARs :
  • 070920Z 17009KT 120V210 CAVOK 17/M01 Q1028
  • 070850Z 20009KT 120V250 CAVOK 16/M01 Q1028
  • 070820Z 18006KT 120V250 CAVOK 14/M03 Q1029
  • 070750Z 19010KT 150V220 CAVOK 13/M03 Q1029
  • 070720Z 17008KT 130V220 CAVOK 12/M04 Q1029

TAF TAF EYKA
Valid from the 07 at 06:00 until the 08 at 06:00 UTC


070500Z 0706/0806 18010KT CAVOK
BECMG 0710/0712 24012G22KT
BECMG 0718/0719 31012KT



MET'MAP, your aeronautical weather chart ! - Copyright ORBIFLY December 2007 - Disclaimer

ORBIFLY MET'MAP TEAM :

Programming & Development : Alexandra Zaïnal
Concept & original design : Baudouin d'Aumeries
Assistance for programming : Marc-Olivier Méhu
Technical & hardware support : Manuel Goepfert

Contact : metmap@orbifly.com




SOURCES & CREDITS :

   NOAA